logo
Search for airport 
image banner adimage banner adimage banner ad
image banner ad

FABIZA - Bizana

Located in , South Africa

ICAO - , IATA -

Data provided by Airmate  

General information

Coordinates: S30°51'36" E29°51'50"
Elevation is 2739 feet MSL.
 
View others Airports in Eastern Cape

Operational data

Special qualification required
Current time UTC:
Current local time:
Weather at : - ( 0 km )
METAR: ZMUB 181000Z 34008MPS 310V010 CAVOK 09/M17 Q1019 NOSIG RMK QFE656.7 14
View NOTAMs / SUP AIP / TFR affecting this airport [VIEW]
Communications frequencies: [VIEW]

Runways:

RWY identifierQFULength (ft)Width (ft)SurfaceLDA (ft)
0737°288766GRASS
25217°288766GRASS

Airport contact information

Address: South Africa

Satellite view of FABIZA